Currently 67°F in Pinon Hills, California, USA
67°F
68°F / 64°F
3 mph S
0.00"
Monday, September 24, 2018 3:06 AM PDT

Pinon Hills, California Weather Summary
Last 36 Hours

Temperature Winds Hourly Humidity Dewpoint
Time Report Norm Report Norm Max Gusts Precip. Rpt. Norm Rpt. Norm Pressure
1Mon 03:06 AM  66.5°F  62°F  3 mph S  3 mph  6 mph  0.00"  33%  42%  36°F  38°F  29.93"
Mon 03:00 AM  66.7°F  62°F  4 mph SW  3 mph  6 mph  0.00"  33%  43%  36°F  38°F  29.93"
2Mon 02:11 AM  68.3°F  62°F  2 mph SW  2 mph  7 mph  ----  32%  43%  36°F  38°F  29.93"
Mon 02:00 AM  67.8°F  62°F  4 mph W  2 mph  7 mph  0.00"  32%  43%  36°F  39°F  29.93"
Mon 01:00 AM  66.8°F  63°F  3 mph W  3 mph  7 mph  0.00"  33%  42%  36°F  39°F  29.94"
3Mon 12:12 AM  64.2°F  64°F  2 mph W  2 mph  6 mph  ----  42%  41%  40°F  38°F  29.94"
Mon 12:00 AM  65.3°F  64°F  2 mph SW  2 mph  8 mph  0.00"  40%  41%  40°F  38°F  29.94"
Sun 11:00 PM  65.5°F  65°F  3 mph SW  2 mph  4 mph  0.00"  48%  40%  45°F  39°F  29.95"
Sun 10:00 PM  65.8°F  66°F  2 mph S  3 mph  6 mph  0.00"  48%  39%  45°F  39°F  29.94"
Sun 09:00 PM  68.5°F  67°F  2 mph S  2 mph  4 mph  0.00"  42%  36%  43°F  38°F  29.92"
Sun 08:00 PM  73.1°F  69°F  1 mph E  3 mph  12 mph  0.00"  36%  33%  43°F  38°F  29.91"
Sun 07:00 PM  75.8°F  72°F  5 mph SW  3 mph  13 mph  0.00"  29%  31%  40°F  38°F  29.88"
Sun 06:00 PM  79.2°F  76°F  5 mph SW  3 mph  14 mph  0.00"  26%  26%  40°F  37°F  29.88"
Sun 05:00 PM  82.9°F  79°F  6 mph SW  4 mph  15 mph  0.00"  22%  22%  39°F  36°F  29.88"
Sun 04:00 PM  84.5°F  79°F  2 mph W  5 mph  13 mph  0.00"  20%  22%  38°F  35°F  29.89"
Sun 03:00 PM  85.1°F  80°F  9 mph SW  5 mph  13 mph  0.00"  19%  21%  37°F  35°F  29.91"
Sun 02:00 PM  85.9°F  80°F  5 mph SW  4 mph  13 mph  0.00"  17%  21%  35°F  35°F  29.93"
Sun 01:00 PM  85.8°F  79°F  9 mph SE  4 mph  16 mph  0.00"  17%  22%  35°F  35°F  29.95"
Sun 12:00 PM  83.2°F  77°F  1 mph S  3 mph  9 mph  0.00"  22%  24%  39°F  37°F  29.98"
Sun 11:00 AM  80.6°F  76°F  2 mph E  3 mph  11 mph  0.00"  24%  26%  39°F  38°F  29.99"
Sun 10:00 AM  80.5°F  73°F  calm  3 mph  none  0.00"  24%  30%  39°F  39°F  30.00"
Sun 09:00 AM  77.0°F  71°F  calm  2 mph  4 mph  0.00"  27%  33%  39°F  39°F  30.00"
Sun 08:00 AM  72.4°F  66°F  calm  1 mph  5 mph  0.00"  33%  38%  40°F  39°F  30.00"
Sun 07:00 AM  66.7°F  60°F  3 mph SW  2 mph  5 mph  0.00"  36%  43%  38°F  37°F  29.99"
Sun 06:00 AM  66.9°F  60°F  3 mph SW  2 mph  6 mph  0.00"  35%  44%  37°F  37°F  29.98"
Sun 05:00 AM  68.5°F  61°F  1 mph SW  2 mph  5 mph  0.00"  32%  43%  36°F  37°F  29.98"
Sun 04:00 AM  69.7°F  61°F  2 mph SW  2 mph  7 mph  0.00"  31%  42%  37°F  37°F  29.98"
Sun 03:00 AM  69.3°F  62°F  2 mph SW  2 mph  6 mph  0.00"  33%  42%  38°F  38°F  29.99"
Sun 02:00 AM  70.2°F  62°F  3 mph SW  2 mph  6 mph  0.00"  30%  43%  36°F  38°F  30.00"
Sun 01:00 AM  69.0°F  63°F  3 mph SW  2 mph  6 mph  0.00"  32%  42%  37°F  38°F  30.00"
Sun 12:00 AM  68.0°F  64°F  3 mph SW  2 mph  6 mph  0.00"  34%  40%  38°F  38°F  30.01"
Sat 11:00 PM  68.3°F  65°F  2 mph SW  2 mph  4 mph  0.00"  36%  40%  39°F  39°F  30.02"
Sat 10:00 PM  69.8°F  66°F  2 mph SW  3 mph  7 mph  0.00"  34%  39%  39°F  39°F  30.01"
Sat 09:00 PM  76.8°F  67°F  1 mph S  2 mph  15 mph  0.00"  27%  36%  39°F  38°F  30.00"
Sat 08:00 PM  77.0°F  69°F  7 mph SW  3 mph  15 mph  0.00"  26%  33%  38°F  37°F  29.98"
Sat 07:00 PM  77.9°F  72°F  9 mph SW  3 mph  16 mph  0.00"  25%  30%  38°F  38°F  29.97"
Sat 06:00 PM  81.1°F  77°F  5 mph SW  3 mph  13 mph  0.00"  22%  25%  37°F  37°F  29.98"
Sat 05:00 PM  83.7°F  79°F  7 mph SW  4 mph  17 mph  0.00"  18%  22%  34°F  35°F  29.98"
Sat 04:00 PM  85.5°F  80°F  6 mph SW  5 mph  16 mph  0.00"  15%  21%  32°F  35°F  30.00"

  1. Current weather data. No green row appears if the current weather data is also the high or low for the current day.
  2. High temperature for the current day.
  3. Low temperature for the current day.

The Pinon Hills, California weather pages are a service of WeatherCurrents.
Copyright ©Mon Sep 24 03:06:44 PDT 2018  WeatherCurrents. All rights reserved. - Submit questions and comments - Privacy Policy

This page automatically refreshes every 10 minutes.